createdAt,value
2023-02-14T00:01:54.628Z,17.07
2023-02-14T00:04:23.033Z,18.27
2023-02-14T00:06:49.904Z,18.27
2023-02-14T00:09:18.575Z,18.43
2023-02-14T00:11:45.749Z,18.10
2023-02-14T00:14:31.850Z,17.77
2023-02-14T00:16:58.778Z,23.83
2023-02-14T00:19:27.369Z,22.40
2023-02-14T00:21:54.348Z,19.50
2023-02-14T00:24:22.850Z,18.77
2023-02-14T00:26:50.474Z,24.10
2023-02-14T00:29:19.989Z,23.27
2023-02-14T00:31:47.239Z,22.30
2023-02-14T00:34:15.832Z,21.27
2023-02-14T00:36:44.859Z,21.20
2023-02-14T00:39:13.456Z,21.97
2023-02-14T00:41:41.141Z,21.50
2023-02-14T00:44:10.070Z,21.80
2023-02-14T00:46:37.276Z,20.90
2023-02-14T00:49:04.668Z,20.43
2023-02-14T00:51:31.595Z,19.70
2023-02-14T00:54:00.019Z,21.40
2023-02-14T00:56:26.881Z,21.33
2023-02-14T00:58:53.734Z,21.77
2023-02-14T01:01:20.821Z,19.70
2023-02-14T01:03:48.295Z,19.17
2023-02-14T01:06:15.751Z,21.73
2023-02-14T01:08:42.607Z,20.47
2023-02-14T01:11:13.635Z,20.27
2023-02-14T01:13:41.116Z,22.17
2023-02-14T01:16:10.130Z,22.07
2023-02-14T01:18:37.433Z,28.20
2023-02-14T01:21:15.992Z,24.67
2023-02-14T01:23:43.503Z,21.87
2023-02-14T01:26:12.864Z,24.40
2023-02-14T01:28:40.273Z,22.63
2023-02-14T01:31:12.388Z,23.60
2023-02-14T01:33:40.130Z,27.27
2023-02-14T01:36:07.629Z,26.47
2023-02-14T01:38:34.459Z,20.07
2023-02-14T01:41:01.560Z,24.57
2023-02-14T01:43:29.898Z,24.80
2023-02-14T01:45:56.925Z,23.23
2023-02-14T01:48:25.065Z,20.67
2023-02-14T01:50:53.531Z,23.67
2023-02-14T01:53:24.658Z,24.47
2023-02-14T01:55:57.058Z,23.00
2023-02-14T01:58:27.254Z,23.23
2023-02-14T02:00:59.187Z,24.50
2023-02-14T02:03:32.122Z,26.57
2023-02-14T02:06:05.335Z,24.27
2023-02-14T02:08:36.089Z,24.33
2023-02-14T02:11:03.117Z,24.90
2023-02-14T02:13:30.190Z,20.77
2023-02-14T02:16:10.261Z,25.37
2023-02-14T02:18:48.804Z,24.73
2023-02-14T02:22:00.441Z,23.27
2023-02-14T02:24:44.165Z,24.63
2023-02-14T02:27:42.267Z,22.60
2023-02-14T02:30:39.384Z,23.90
2023-02-14T02:33:40.562Z,20.23
2023-02-14T02:36:40.525Z,24.73
2023-02-14T02:39:21.282Z,24.20
2023-02-14T02:42:02.778Z,24.80
2023-02-14T02:44:40.162Z,25.40
2023-02-14T02:47:11.677Z,23.53
2023-02-14T02:50:04.808Z,24.83
2023-02-14T02:53:00.245Z,25.37
2023-02-14T02:55:56.537Z,23.53
2023-02-14T02:58:26.029Z,23.57
2023-02-14T03:00:54.540Z,24.73
2023-02-14T03:04:02.304Z,26.47
2023-02-14T03:06:30.174Z,22.20
2023-02-14T03:08:58.572Z,23.80
2023-02-14T03:11:26.069Z,26.27
2023-02-14T03:14:07.822Z,26.37
2023-02-14T03:16:39.702Z,25.43
2023-02-14T03:19:44.975Z,27.60
2023-02-14T03:22:21.569Z,24.83
2023-02-14T03:24:56.249Z,24.37
2023-02-14T03:27:27.233Z,25.07
2023-02-14T03:30:02.767Z,26.13
2023-02-14T03:32:35.703Z,24.97
2023-02-14T03:35:13.005Z,24.07
2023-02-14T03:37:45.850Z,22.67
2023-02-14T03:40:20.874Z,26.67
2023-02-14T03:42:52.843Z,26.17
2023-02-14T03:45:27.747Z,27.13
2023-02-14T03:47:58.589Z,26.03
2023-02-14T03:50:27.388Z,25.97
2023-02-14T03:52:56.102Z,26.33
2023-02-14T03:55:30.855Z,29.90
2023-02-14T03:58:06.317Z,26.83
2023-02-14T04:00:37.576Z,28.57
2023-02-14T04:03:11.892Z,28.67
2023-02-14T04:05:43.490Z,26.20
2023-02-14T04:08:12.246Z,29.77
2023-02-14T04:10:41.854Z,28.07
2023-02-14T04:13:08.750Z,26.07
2023-02-14T04:15:35.656Z,26.07
2023-02-14T04:18:20.962Z,28.37
2023-02-14T04:20:47.847Z,23.97
2023-02-14T04:23:14.728Z,27.47
2023-02-14T04:25:43.112Z,23.43
2023-02-14T04:28:10.116Z,22.23
2023-02-14T04:30:37.247Z,22.33
2023-02-14T04:33:04.791Z,22.73
2023-02-14T04:35:31.625Z,25.07
2023-02-14T04:37:58.431Z,21.67
2023-02-14T04:40:25.407Z,23.53
2023-02-14T04:42:54.005Z,23.73
2023-02-14T04:45:20.889Z,23.60
2023-02-14T04:47:47.781Z,24.23
2023-02-14T04:50:15.171Z,21.80
2023-02-14T04:52:42.351Z,21.93
2023-02-14T04:55:10.129Z,25.33
2023-02-14T04:57:37.156Z,22.83
2023-02-14T05:00:06.531Z,24.60
2023-02-14T05:02:33.399Z,26.13
2023-02-14T05:05:00.334Z,24.40
2023-02-14T05:07:27.392Z,25.20
2023-02-14T05:09:54.279Z,22.63
2023-02-14T05:12:21.101Z,25.40
2023-02-14T05:14:48.209Z,25.43
2023-02-14T05:17:16.448Z,25.30
2023-02-14T05:19:43.327Z,24.03
2023-02-14T05:22:10.217Z,23.30
2023-02-14T05:24:37.110Z,24.53
2023-02-14T05:27:04.041Z,26.97
2023-02-14T05:29:30.853Z,22.00
2023-02-14T05:31:57.730Z,29.40
2023-02-14T05:34:26.019Z,29.97
2023-02-14T05:36:54.053Z,26.80
2023-02-14T05:39:21.146Z,26.37
2023-02-14T05:41:47.950Z,26.53
2023-02-14T05:44:14.793Z,30.90
2023-02-14T05:46:41.613Z,34.73
2023-02-14T05:49:08.627Z,36.70
2023-02-14T05:51:36.833Z,36.47
2023-02-14T05:54:03.910Z,51.07
2023-02-14T05:56:30.735Z,35.30
2023-02-14T05:58:57.608Z,42.27
2023-02-14T06:01:24.505Z,40.77
2023-02-14T06:03:51.342Z,36.67
2023-02-14T06:06:18.172Z,34.80
2023-02-14T06:08:46.385Z,41.80
2023-02-14T06:11:13.289Z,33.87
2023-02-14T06:13:41.413Z,33.53
2023-02-14T06:16:08.266Z,49.57
2023-02-14T06:18:35.156Z,34.47
2023-02-14T06:21:02.465Z,32.10
2023-02-14T06:23:29.507Z,32.63
2023-02-14T06:25:57.760Z,36.60
2023-02-14T06:28:24.630Z,80.53
2023-02-14T06:30:51.829Z,42.67
2023-02-14T06:33:18.687Z,66.73
2023-02-14T06:35:45.534Z,53.27
2023-02-14T06:38:12.392Z,57.67
2023-02-14T06:40:39.280Z,44.00
2023-02-14T06:43:07.519Z,37.63
2023-02-14T06:45:34.409Z,38.30
2023-02-14T06:48:01.249Z,33.20
2023-02-14T06:50:28.063Z,50.13
2023-02-14T06:52:54.891Z,34.40
2023-02-14T06:55:21.864Z,33.90
2023-02-14T06:57:48.771Z,33.57
2023-02-14T07:00:18.795Z,38.90
2023-02-14T07:02:46.407Z,26.20
2023-02-14T07:05:15.279Z,31.17
2023-02-14T07:07:42.106Z,32.47
2023-02-14T07:10:09.382Z,37.13
2023-02-14T07:12:36.258Z,33.13
2023-02-14T07:15:03.324Z,41.07
2023-02-14T07:17:31.588Z,35.50
2023-02-14T07:19:58.718Z,34.73
2023-02-14T07:22:25.694Z,48.67
2023-02-14T07:24:52.644Z,35.00
2023-02-14T07:27:19.575Z,37.43
2023-02-14T07:29:46.781Z,40.70
2023-02-14T07:32:13.824Z,43.43
2023-02-14T07:34:42.319Z,41.13
2023-02-14T07:37:09.181Z,37.17
2023-02-14T07:39:36.107Z,40.17
2023-02-14T07:42:03.116Z,42.63
2023-02-14T07:44:30.031Z,35.97
2023-02-14T07:46:57.023Z,42.23
2023-02-14T07:49:24.204Z,43.63
2023-02-14T07:51:52.456Z,44.37
2023-02-14T07:54:20.348Z,50.40
2023-02-14T07:56:47.264Z,42.50
2023-02-14T07:59:14.292Z,39.50
2023-02-14T08:01:41.245Z,39.00
2023-02-14T08:04:08.156Z,41.50
2023-02-14T08:06:35.291Z,43.20
2023-02-14T08:09:03.566Z,43.30
2023-02-14T08:11:49.105Z,50.53
2023-02-14T08:14:16.566Z,46.70
2023-02-14T08:16:43.547Z,37.43
2023-02-14T08:19:10.482Z,40.27
2023-02-14T08:21:37.458Z,35.93
2023-02-14T08:24:06.096Z,34.87
2023-02-14T08:26:33.074Z,30.83
2023-02-14T08:29:01.594Z,33.93
2023-02-14T08:31:35.695Z,32.03
2023-02-14T08:34:03.508Z,31.17
2023-02-14T08:36:30.397Z,32.40
2023-02-14T08:38:57.703Z,35.40
2023-02-14T08:41:26.000Z,33.80
2023-02-14T08:43:53.398Z,34.93
2023-02-14T08:46:20.609Z,32.53
2023-02-14T08:48:47.685Z,34.47
2023-02-14T08:51:16.579Z,33.27
2023-02-14T08:53:44.032Z,40.67
2023-02-14T08:56:13.290Z,40.93
2023-02-14T08:58:41.762Z,38.77
2023-02-14T09:01:09.887Z,31.20
2023-02-14T09:03:38.427Z,34.47
2023-02-14T09:06:07.057Z,37.47
2023-02-14T09:08:35.058Z,30.83
2023-02-14T09:11:07.380Z,29.90
2023-02-14T09:13:34.273Z,32.23
2023-02-14T09:16:05.360Z,33.03
2023-02-14T09:18:32.792Z,29.40
2023-02-14T09:21:00.094Z,30.60
2023-02-14T09:23:27.398Z,32.73
2023-02-14T09:26:01.236Z,29.53
2023-02-14T09:28:28.510Z,30.90
2023-02-14T09:30:55.458Z,32.73
2023-02-14T09:33:24.426Z,32.97
2023-02-14T09:35:51.321Z,29.40
2023-02-14T09:38:18.545Z,33.93
2023-02-14T09:40:46.180Z,29.43
2023-02-14T09:43:23.367Z,34.37
2023-02-14T09:45:54.990Z,36.03
2023-02-14T09:48:29.482Z,33.67
2023-02-14T09:51:00.609Z,31.43
2023-02-14T09:53:32.310Z,29.00
2023-02-14T09:56:07.860Z,29.27
2023-02-14T09:58:39.329Z,27.33
2023-02-14T10:01:15.460Z,31.40
2023-02-14T10:04:16.362Z,29.97
2023-02-14T10:06:50.465Z,33.00
2023-02-14T10:09:37.590Z,29.03
2023-02-14T10:12:10.555Z,38.90
2023-02-14T10:14:40.881Z,29.13
2023-02-14T10:17:13.410Z,28.33
2023-02-14T10:19:44.854Z,31.70
2023-02-14T10:22:15.515Z,30.03
2023-02-14T10:24:47.838Z,32.80
2023-02-14T10:27:23.209Z,30.73
2023-02-14T10:29:50.291Z,32.00
2023-02-14T10:32:24.651Z,32.53
2023-02-14T10:35:00.090Z,34.23
2023-02-14T10:37:40.126Z,33.33
2023-02-14T10:40:34.406Z,35.60
2023-02-14T10:43:11.863Z,29.50
2023-02-14T10:45:44.486Z,35.93
2023-02-14T10:48:22.085Z,30.37
2023-02-14T10:50:57.738Z,31.80
2023-02-14T10:53:32.796Z,32.17
2023-02-14T10:56:04.481Z,28.23
2023-02-14T10:58:36.153Z,29.87
2023-02-14T11:01:06.839Z,31.03
2023-02-14T11:03:35.940Z,29.67
2023-02-14T11:06:04.229Z,30.33
2023-02-14T11:08:34.430Z,29.13
2023-02-14T11:11:07.769Z,26.93
2023-02-14T11:13:37.052Z,27.33
2023-02-14T11:16:06.418Z,29.97
2023-02-14T11:18:36.104Z,29.27
2023-02-14T11:21:07.516Z,26.57
2023-02-14T11:23:37.479Z,26.47
2023-02-14T11:26:09.082Z,22.63
2023-02-14T11:28:37.361Z,27.70
2023-02-14T11:31:13.954Z,25.60
2023-02-14T11:33:43.289Z,26.17
2023-02-14T11:36:14.990Z,26.03
2023-02-14T11:38:43.924Z,31.77
2023-02-14T11:41:13.451Z,27.37
2023-02-14T11:43:42.525Z,28.30
2023-02-14T11:46:15.173Z,26.07
2023-02-14T11:48:57.170Z,31.13
2023-02-14T11:51:31.089Z,28.83
2023-02-14T11:54:03.214Z,34.70
2023-02-14T11:56:48.229Z,32.33
2023-02-14T11:59:26.116Z,29.03
2023-02-14T12:01:54.062Z,32.47
2023-02-14T12:04:23.792Z,30.60
2023-02-14T12:06:52.159Z,30.93
2023-02-14T12:09:26.985Z,32.40
2023-02-14T12:11:57.893Z,32.20
2023-02-14T12:14:27.532Z,29.03
2023-02-14T12:17:00.651Z,30.97
2023-02-14T12:19:37.273Z,30.30
2023-02-14T12:22:07.118Z,33.27
2023-02-14T12:24:36.405Z,30.77
2023-02-14T12:27:20.124Z,32.30
2023-02-14T12:29:52.532Z,28.90
2023-02-14T12:35:16.070Z,33.43
2023-02-14T12:38:03.808Z,32.13
2023-02-14T12:40:44.776Z,33.20
2023-02-14T12:43:35.286Z,32.97
2023-02-14T12:46:22.898Z,31.07
2023-02-14T12:49:11.341Z,33.93
2023-02-14T12:51:46.887Z,30.90
2023-02-14T12:54:31.075Z,31.77
2023-02-14T12:57:06.488Z,33.53
2023-02-14T12:59:42.684Z,34.53
2023-02-14T13:03:00.662Z,36.83
2023-02-14T13:05:35.704Z,32.47
2023-02-14T13:08:17.918Z,34.13
2023-02-14T13:10:55.584Z,34.10
2023-02-14T13:13:31.372Z,33.17
2023-02-14T13:16:07.550Z,33.03
2023-02-14T13:18:44.611Z,31.83
2023-02-14T13:21:16.121Z,34.47
2023-02-14T13:23:46.395Z,33.50
2023-02-14T13:26:18.242Z,32.77
2023-02-14T13:28:51.094Z,28.93
2023-02-14T13:31:19.616Z,29.30
2023-02-14T13:33:52.382Z,37.90
2023-02-14T13:36:20.861Z,30.67
2023-02-14T13:38:51.008Z,30.53
2023-02-14T13:41:20.850Z,31.00
2023-02-14T13:43:54.970Z,30.77
2023-02-14T13:46:41.583Z,28.70
2023-02-14T13:49:27.070Z,29.13
2023-02-14T13:51:56.217Z,31.13
2023-02-14T13:54:33.142Z,37.90
2023-02-14T13:57:03.201Z,33.87
2023-02-14T13:59:32.572Z,32.60
2023-02-14T14:02:31.774Z,31.80
2023-02-14T14:04:58.901Z,33.53
2023-02-14T14:07:30.240Z,35.10
2023-02-14T14:10:02.521Z,35.33
2023-02-14T14:12:41.726Z,36.03
2023-02-14T14:15:15.349Z,33.53
2023-02-14T14:17:45.996Z,34.97
2023-02-14T14:20:42.013Z,30.57
2023-02-14T14:23:37.387Z,40.57
2023-02-14T14:26:37.558Z,31.40
2023-02-14T14:29:16.032Z,32.20
2023-02-14T14:31:42.966Z,31.87
2023-02-14T14:34:17.300Z,36.20
2023-02-14T14:36:44.167Z,26.83
2023-02-14T14:39:11.201Z,31.93
2023-02-14T14:41:40.236Z,35.30
2023-02-14T14:44:07.421Z,38.27
2023-02-14T14:46:36.860Z,30.57
2023-02-14T14:49:05.777Z,33.47
2023-02-14T14:51:35.561Z,34.53
2023-02-14T14:54:05.904Z,35.80
2023-02-14T14:56:35.014Z,34.47
2023-02-14T14:59:18.367Z,34.40
2023-02-14T15:01:48.330Z,32.60
2023-02-14T15:04:19.026Z,34.30
2023-02-14T15:06:47.260Z,34.37
2023-02-14T15:09:17.050Z,33.87
2023-02-14T15:12:04.476Z,31.73
2023-02-14T15:14:35.193Z,31.00
2023-02-14T15:17:05.308Z,32.67
2023-02-14T15:19:37.298Z,33.03
2023-02-14T15:22:06.560Z,36.67
2023-02-14T15:24:35.110Z,31.13
2023-02-14T15:27:03.259Z,30.13
2023-02-14T15:29:32.923Z,36.73
2023-02-14T15:32:03.022Z,33.47
2023-02-14T15:34:35.994Z,34.43
2023-02-14T15:37:06.235Z,37.03
2023-02-14T15:39:36.866Z,33.60
2023-02-14T15:42:04.817Z,37.87
2023-02-14T15:44:32.261Z,34.63
2023-02-14T15:47:02.099Z,36.20
2023-02-14T15:49:34.948Z,35.90
2023-02-14T15:52:04.026Z,32.10
2023-02-14T15:54:36.219Z,34.80
2023-02-14T15:57:04.076Z,37.03
2023-02-14T15:59:34.234Z,34.70
2023-02-14T16:02:04.185Z,35.00
2023-02-14T16:04:35.247Z,37.30
2023-02-14T16:07:16.088Z,35.77
2023-02-14T16:09:42.902Z,38.33
2023-02-14T16:12:29.560Z,32.57
2023-02-14T16:15:03.322Z,39.30
2023-02-14T16:17:34.642Z,43.10
2023-02-14T16:20:26.605Z,39.47
2023-02-14T16:22:53.700Z,37.30
2023-02-14T16:25:21.813Z,39.97
2023-02-14T16:27:48.807Z,43.40
2023-02-14T16:30:17.306Z,38.87
2023-02-14T16:32:48.515Z,39.83
2023-02-14T16:35:18.564Z,38.50
2023-02-14T16:37:50.486Z,40.67
2023-02-14T16:40:19.221Z,39.47
2023-02-14T16:42:46.275Z,41.20
2023-02-14T16:45:17.800Z,42.40
2023-02-14T16:47:46.677Z,36.87
2023-02-14T16:50:13.946Z,45.40
2023-02-14T16:52:41.619Z,39.73
2023-02-14T16:55:15.692Z,36.37
2023-02-14T16:57:45.159Z,38.50
2023-02-14T17:00:13.410Z,37.57
2023-02-14T17:02:42.461Z,39.83
2023-02-14T17:05:10.713Z,39.73
2023-02-14T17:07:40.698Z,36.20
2023-02-14T17:10:10.403Z,41.83
2023-02-14T17:12:41.593Z,41.17
2023-02-14T17:15:12.929Z,34.63
2023-02-14T17:17:40.078Z,34.63
2023-02-14T17:20:08.431Z,45.50
2023-02-14T17:22:36.560Z,40.73
2023-02-14T17:25:03.579Z,40.80
2023-02-14T17:27:30.420Z,39.80
2023-02-14T17:29:58.606Z,37.70
2023-02-14T17:32:25.689Z,44.47
2023-02-14T17:34:53.357Z,40.20
2023-02-14T17:37:20.391Z,41.77
2023-02-14T17:39:47.263Z,41.40
2023-02-14T17:42:14.240Z,40.57
2023-02-14T17:44:41.126Z,43.97
2023-02-14T17:47:09.358Z,41.97
2023-02-14T17:49:36.192Z,44.60
2023-02-14T17:52:03.097Z,39.20
2023-02-14T17:54:30.036Z,38.23
2023-02-14T17:56:57.037Z,41.83
2023-02-14T17:59:24.308Z,41.33
2023-02-14T18:01:51.265Z,38.40
2023-02-14T18:04:19.483Z,40.67
2023-02-14T18:06:46.413Z,46.33
2023-02-14T18:09:14.030Z,41.60
2023-02-14T18:11:42.242Z,37.87
2023-02-14T18:14:09.367Z,34.10
2023-02-14T18:16:37.316Z,44.43
2023-02-14T18:19:05.220Z,43.73
2023-02-14T18:21:35.666Z,42.57
2023-02-14T18:26:39.756Z,41.63
2023-02-14T18:29:07.449Z,42.43
2023-02-14T18:31:35.664Z,38.23
2023-02-14T18:34:03.583Z,45.90
2023-02-14T18:36:31.745Z,42.87
2023-02-14T18:38:59.944Z,39.47
2023-02-14T18:41:29.486Z,42.53
2023-02-14T18:43:56.673Z,41.87
2023-02-14T18:46:25.522Z,42.67
2023-02-14T18:48:53.025Z,39.43
2023-02-14T18:51:23.513Z,44.40
2023-02-14T18:53:52.278Z,41.53
2023-02-14T18:56:22.209Z,43.93
2023-02-14T18:58:52.787Z,42.23
2023-02-14T19:01:23.028Z,36.30
2023-02-14T19:03:50.952Z,42.00
2023-02-14T19:06:18.869Z,42.80
2023-02-14T19:08:46.454Z,37.20
2023-02-14T19:11:15.534Z,45.63
2023-02-14T19:13:46.428Z,42.27
2023-02-14T19:16:15.826Z,35.17
2023-02-14T19:18:42.956Z,39.50
2023-02-14T19:21:13.386Z,38.10
2023-02-14T19:23:40.574Z,40.67
2023-02-14T19:26:12.067Z,41.60
2023-02-14T19:28:39.408Z,45.77
2023-02-14T19:31:07.954Z,33.43
2023-02-14T19:33:38.166Z,32.47
2023-02-14T19:36:07.513Z,35.70
2023-02-14T19:38:34.618Z,34.23
2023-02-14T19:41:01.748Z,32.40
2023-02-14T19:43:28.836Z,31.87
2023-02-14T19:45:55.749Z,43.43
2023-02-14T19:48:24.394Z,35.60
2023-02-14T19:50:54.066Z,34.53
2023-02-14T19:53:21.057Z,45.80
2023-02-14T19:55:47.968Z,40.63
2023-02-14T19:58:15.022Z,41.60
2023-02-14T20:00:42.113Z,41.23
2023-02-14T20:03:08.991Z,35.03
2023-02-14T20:05:39.311Z,40.60
2023-02-14T20:08:06.486Z,37.57
2023-02-14T20:10:33.475Z,38.10
2023-02-14T20:13:00.394Z,37.67
2023-02-14T20:15:29.012Z,43.93
2023-02-14T20:17:57.011Z,41.60
2023-02-14T20:20:24.017Z,42.80
2023-02-14T20:22:52.365Z,39.77
2023-02-14T20:25:19.575Z,44.57
2023-02-14T20:27:46.807Z,72.00
2023-02-14T20:30:14.478Z,57.67
2023-02-14T20:32:41.454Z,67.00
2023-02-14T20:35:08.710Z,47.03
2023-02-14T20:37:35.664Z,46.67
2023-02-14T20:40:04.574Z,42.77
2023-02-14T20:42:31.744Z,46.00
2023-02-14T20:44:58.743Z,39.83
2023-02-14T20:47:25.686Z,44.13
2023-02-14T20:49:52.708Z,43.13
2023-02-14T20:52:19.604Z,45.17
2023-02-14T20:54:46.625Z,45.83
2023-02-14T20:57:14.808Z,47.87
2023-02-14T20:59:44.755Z,42.47
2023-02-14T21:02:12.063Z,43.20
2023-02-14T21:04:39.136Z,44.40
2023-02-14T21:07:08.863Z,41.33
2023-02-14T21:09:36.841Z,39.00
2023-02-14T21:12:04.303Z,41.50
2023-02-14T21:14:32.960Z,49.33
2023-02-14T21:16:59.895Z,47.60
2023-02-14T21:19:28.490Z,46.00
2023-02-14T21:21:55.453Z,42.40
2023-02-14T21:24:22.423Z,40.40
2023-02-14T21:26:49.382Z,44.87
2023-02-14T21:29:16.527Z,43.30
2023-02-14T21:31:44.949Z,47.40
2023-02-14T21:34:14.749Z,50.07
2023-02-14T21:36:41.639Z,45.57
2023-02-14T21:39:08.679Z,51.47
2023-02-14T21:41:36.571Z,49.17
2023-02-14T21:44:04.142Z,51.70
2023-02-14T21:46:33.310Z,42.63
2023-02-14T21:49:22.424Z,46.90
2023-02-14T21:51:49.740Z,47.90
2023-02-14T21:54:17.619Z,49.53
2023-02-14T21:56:44.715Z,45.87
2023-02-14T21:59:12.421Z,47.27
2023-02-14T22:01:41.178Z,51.65
2023-02-14T22:04:13.324Z,53.57
2023-02-14T22:06:43.329Z,51.47
2023-02-14T22:09:12.499Z,49.10
2023-02-14T22:11:39.450Z,51.80
2023-02-14T22:14:06.314Z,49.27
2023-02-14T22:16:33.267Z,48.40
2023-02-14T22:19:00.211Z,48.50
2023-02-14T22:21:28.551Z,56.53
2023-02-14T22:23:55.689Z,52.17
2023-02-14T22:26:24.121Z,48.57
2023-02-14T22:28:53.775Z,51.33
2023-02-14T22:31:20.838Z,48.10
2023-02-14T22:33:49.008Z,48.93
2023-02-14T22:36:16.662Z,48.17
2023-02-14T22:38:44.870Z,48.33
2023-02-14T22:41:14.318Z,42.80
2023-02-14T22:43:41.922Z,43.77
2023-02-14T22:46:11.005Z,49.30
2023-02-14T22:48:38.992Z,42.37
2023-02-14T22:51:11.543Z,47.20
2023-02-14T22:53:39.352Z,41.27
2023-02-14T22:56:15.775Z,51.77
2023-02-14T22:58:42.923Z,47.77
2023-02-14T23:01:13.811Z,53.03
2023-02-14T23:03:40.698Z,49.27
2023-02-14T23:06:07.638Z,52.27
2023-02-14T23:08:34.599Z,48.97
2023-02-14T23:11:07.489Z,43.63
2023-02-14T23:13:54.326Z,53.43
2023-02-14T23:16:39.941Z,53.70
2023-02-14T23:19:30.729Z,47.00
2023-02-14T23:21:58.566Z,50.43
2023-02-14T23:24:25.487Z,56.37
2023-02-14T23:26:55.166Z,52.73
2023-02-14T23:29:23.342Z,53.00
2023-02-14T23:31:50.307Z,57.60
2023-02-14T23:34:17.582Z,57.23
2023-02-14T23:36:44.488Z,49.57
2023-02-14T23:39:11.590Z,49.23
2023-02-14T23:41:47.373Z,50.03
2023-02-14T23:44:14.719Z,51.60
2023-02-14T23:46:43.204Z,44.87
2023-02-14T23:49:10.692Z,50.57
2023-02-14T23:51:37.603Z,56.47
2023-02-14T23:54:05.071Z,55.13
2023-02-14T23:56:32.157Z,46.00
2023-02-14T23:58:59.183Z,47.80
